sensor_id;sensor_type;location;lat;lon;timestamp;temperature;humidity
3308;DHT22;1666;48.898;9.182;2022-08-01T00:00:17;22.80;1.00
3308;DHT22;1666;48.898;9.182;2022-08-01T00:02:47;22.70;1.00
3308;DHT22;1666;48.898;9.182;2022-08-01T00:05:17;22.70;1.00
3308;DHT22;1666;48.898;9.182;2022-08-01T00:07:47;22.70;1.00
3308;DHT22;1666;48.898;9.182;2022-08-01T00:10:19;22.60;1.00
3308;DHT22;1666;48.898;9.182;2022-08-01T00:12:49;22.60;1.00
3308;DHT22;1666;48.898;9.182;2022-08-01T00:15:19;22.50;1.00
3308;DHT22;1666;48.898;9.182;2022-08-01T00:17:49;22.50;1.00
3308;DHT22;1666;48.898;9.182;2022-08-01T00:20:19;22.40;1.00
3308;DHT22;1666;48.898;9.182;2022-08-01T00:22:49;22.40;1.00
3308;DHT22;1666;48.898;9.182;2022-08-01T00:25:21;22.40;1.00
3308;DHT22;1666;48.898;9.182;2022-08-01T00:28:00;22.40;1.00
3308;DHT22;1666;48.898;9.182;2022-08-01T00:30:30;22.40;1.00
3308;DHT22;1666;48.898;9.182;2022-08-01T00:33:00;22.40;1.00
3308;DHT22;1666;48.898;9.182;2022-08-01T00:35:30;22.40;1.00
3308;DHT22;1666;48.898;9.182;2022-08-01T00:38:00;22.40;1.00
3308;DHT22;1666;48.898;9.182;2022-08-01T00:40:35;22.40;1.00
3308;DHT22;1666;48.898;9.182;2022-08-01T00:43:05;22.40;1.00
3308;DHT22;1666;48.898;9.182;2022-08-01T00:45:38;22.40;1.00
3308;DHT22;1666;48.898;9.182;2022-08-01T00:48:10;22.30;1.00
3308;DHT22;1666;48.898;9.182;2022-08-01T00:50:40;22.30;1.00
3308;DHT22;1666;48.898;9.182;2022-08-01T00:53:19;22.30;1.00
3308;DHT22;1666;48.898;9.182;2022-08-01T00:55:54;22.30;1.00
3308;DHT22;1666;48.898;9.182;2022-08-01T00:58:27;22.30;1.00
3308;DHT22;1666;48.898;9.182;2022-08-01T01:00:59;22.20;1.00
3308;DHT22;1666;48.898;9.182;2022-08-01T01:03:37;22.20;1.00
3308;DHT22;1666;48.898;9.182;2022-08-01T01:06:31;22.20;1.00
3308;DHT22;1666;48.898;9.182;2022-08-01T01:09:23;22.20;1.00
3308;DHT22;1666;48.898;9.182;2022-08-01T01:12:05;22.20;1.00
3308;DHT22;1666;48.898;9.182;2022-08-01T01:14:44;22.10;1.00
3308;DHT22;1666;48.898;9.182;2022-08-01T01:17:16;22.10;1.00
3308;DHT22;1666;48.898;9.182;2022-08-01T01:20:09;22.10;1.00
3308;DHT22;1666;48.898;9.182;2022-08-01T01:25:54;22.00;1.00
3308;DHT22;1666;48.898;9.182;2022-08-01T01:28:40;21.90;1.00
3308;DHT22;1666;48.898;9.182;2022-08-01T01:31:15;21.80;1.00
3308;DHT22;1666;48.898;9.182;2022-08-01T01:33:49;21.80;1.00
3308;DHT22;1666;48.898;9.182;2022-08-01T01:36:21;21.80;1.00
3308;DHT22;1666;48.898;9.182;2022-08-01T01:38:52;21.80;1.00
3308;DHT22;1666;48.898;9.182;2022-08-01T01:41:23;21.80;1.00
3308;DHT22;1666;48.898;9.182;2022-08-01T01:43:54;21.80;1.00
3308;DHT22;1666;48.898;9.182;2022-08-01T01:46:30;21.80;1.00
3308;DHT22;1666;48.898;9.182;2022-08-01T01:49:03;21.80;1.00
3308;DHT22;1666;48.898;9.182;2022-08-01T01:51:38;21.80;1.00
3308;DHT22;1666;48.898;9.182;2022-08-01T01:54:20;21.70;1.00
3308;DHT22;1666;48.898;9.182;2022-08-01T01:56:54;21.70;1.00
3308;DHT22;1666;48.898;9.182;2022-08-01T01:59:28;21.70;1.00
3308;DHT22;1666;48.898;9.182;2022-08-01T02:02:05;21.60;1.00
3308;DHT22;1666;48.898;9.182;2022-08-01T02:04:40;21.60;1.00
3308;DHT22;1666;48.898;9.182;2022-08-01T02:07:13;21.60;1.00
3308;DHT22;1666;48.898;9.182;2022-08-01T02:09:47;21.50;1.00
3308;DHT22;1666;48.898;9.182;2022-08-01T02:12:19;21.50;1.00
3308;DHT22;1666;48.898;9.182;2022-08-01T02:14:50;21.50;1.00
3308;DHT22;1666;48.898;9.182;2022-08-01T02:17:25;21.40;1.00
3308;DHT22;1666;48.898;9.182;2022-08-01T02:19:56;21.40;1.00
3308;DHT22;1666;48.898;9.182;2022-08-01T02:22:30;21.30;1.00
3308;DHT22;1666;48.898;9.182;2022-08-01T02:25:07;21.30;1.00
3308;DHT22;1666;48.898;9.182;2022-08-01T02:27:43;21.30;1.00
3308;DHT22;1666;48.898;9.182;2022-08-01T02:30:15;21.30;1.00
3308;DHT22;1666;48.898;9.182;2022-08-01T02:32:51;21.20;1.00
3308;DHT22;1666;48.898;9.182;2022-08-01T02:35:26;21.10;1.00
3308;DHT22;1666;48.898;9.182;2022-08-01T02:37:57;21.10;1.00
3308;DHT22;1666;48.898;9.182;2022-08-01T02:40:31;21.10;1.00
3308;DHT22;1666;48.898;9.182;2022-08-01T02:43:03;21.00;1.00
3308;DHT22;1666;48.898;9.182;2022-08-01T02:45:36;21.00;1.00
3308;DHT22;1666;48.898;9.182;2022-08-01T02:48:11;20.90;1.00
3308;DHT22;1666;48.898;9.182;2022-08-01T02:50:44;20.90;1.00
3308;DHT22;1666;48.898;9.182;2022-08-01T02:53:18;20.80;1.00
3308;DHT22;1666;48.898;9.182;2022-08-01T02:56:08;20.90;1.00
3308;DHT22;1666;48.898;9.182;2022-08-01T02:58:40;20.80;1.00
3308;DHT22;1666;48.898;9.182;2022-08-01T03:01:12;20.80;1.00
3308;DHT22;1666;48.898;9.182;2022-08-01T03:03:47;20.80;1.00
3308;DHT22;1666;48.898;9.182;2022-08-01T03:06:18;20.80;1.00
3308;DHT22;1666;48.898;9.182;2022-08-01T03:08:51;20.80;1.00
3308;DHT22;1666;48.898;9.182;2022-08-01T03:11:23;20.80;1.00
3308;DHT22;1666;48.898;9.182;2022-08-01T03:13:54;20.80;1.00
3308;DHT22;1666;48.898;9.182;2022-08-01T03:16:25;20.70;1.00
3308;DHT22;1666;48.898;9.182;2022-08-01T03:19:00;20.70;1.00
3308;DHT22;1666;48.898;9.182;2022-08-01T03:21:31;20.80;1.00
3308;DHT22;1666;48.898;9.182;2022-08-01T03:24:04;20.80;1.00
3308;DHT22;1666;48.898;9.182;2022-08-01T03:26:36;20.70;1.00
3308;DHT22;1666;48.898;9.182;2022-08-01T03:29:12;20.70;1.00
3308;DHT22;1666;48.898;9.182;2022-08-01T03:31:44;20.60;1.00
3308;DHT22;1666;48.898;9.182;2022-08-01T03:34:20;20.60;1.00
3308;DHT22;1666;48.898;9.182;2022-08-01T03:36:56;20.50;1.00
3308;DHT22;1666;48.898;9.182;2022-08-01T03:39:33;20.60;1.00
3308;DHT22;1666;48.898;9.182;2022-08-01T03:42:08;20.50;1.00
3308;DHT22;1666;48.898;9.182;2022-08-01T03:44:40;20.50;1.00
3308;DHT22;1666;48.898;9.182;2022-08-01T03:47:11;20.50;1.00
3308;DHT22;1666;48.898;9.182;2022-08-01T03:49:44;20.50;1.00
3308;DHT22;1666;48.898;9.182;2022-08-01T03:52:16;20.40;1.00
3308;DHT22;1666;48.898;9.182;2022-08-01T03:54:48;20.30;1.00
3308;DHT22;1666;48.898;9.182;2022-08-01T03:57:19;20.30;1.00
3308;DHT22;1666;48.898;9.182;2022-08-01T04:00:05;20.20;1.00
3308;DHT22;1666;48.898;9.182;2022-08-01T04:02:37;20.30;1.00
3308;DHT22;1666;48.898;9.182;2022-08-01T04:05:10;20.30;1.00
3308;DHT22;1666;48.898;9.182;2022-08-01T04:07:40;20.30;1.00
3308;DHT22;1666;48.898;9.182;2022-08-01T04:10:14;20.30;1.00
3308;DHT22;1666;48.898;9.182;2022-08-01T04:12:45;20.20;1.00
3308;DHT22;1666;48.898;9.182;2022-08-01T04:15:15;20.30;1.00
3308;DHT22;1666;48.898;9.182;2022-08-01T04:17:47;20.40;1.00
3308;DHT22;1666;48.898;9.182;2022-08-01T04:20:21;21.50;1.00
3308;DHT22;1666;48.898;9.182;2022-08-01T04:22:51;22.50;1.00
3308;DHT22;1666;48.898;9.182;2022-08-01T04:25:26;23.10;1.00
3308;DHT22;1666;48.898;9.182;2022-08-01T04:27:58;23.80;1.00
3308;DHT22;1666;48.898;9.182;2022-08-01T04:30:32;24.10;1.00
3308;DHT22;1666;48.898;9.182;2022-08-01T04:33:04;23.50;1.00
3308;DHT22;1666;48.898;9.182;2022-08-01T04:35:41;24.50;1.00
3308;DHT22;1666;48.898;9.182;2022-08-01T04:38:33;25.10;1.00
3308;DHT22;1666;48.898;9.182;2022-08-01T04:41:04;25.40;1.00
3308;DHT22;1666;48.898;9.182;2022-08-01T04:43:36;25.60;1.00
3308;DHT22;1666;48.898;9.182;2022-08-01T04:46:07;25.80;1.00
3308;DHT22;1666;48.898;9.182;2022-08-01T04:48:38;26.20;1.00
3308;DHT22;1666;48.898;9.182;2022-08-01T04:51:15;26.20;1.00
3308;DHT22;1666;48.898;9.182;2022-08-01T04:53:49;26.60;1.00
3308;DHT22;1666;48.898;9.182;2022-08-01T04:56:20;27.00;1.00
3308;DHT22;1666;48.898;9.182;2022-08-01T04:58:50;27.20;1.00
3308;DHT22;1666;48.898;9.182;2022-08-01T05:01:48;27.60;1.00
3308;DHT22;1666;48.898;9.182;2022-08-01T05:04:18;27.20;1.00
3308;DHT22;1666;48.898;9.182;2022-08-01T05:06:51;27.50;1.00
3308;DHT22;1666;48.898;9.182;2022-08-01T05:09:21;27.50;1.00
3308;DHT22;1666;48.898;9.182;2022-08-01T05:11:57;27.60;1.00
3308;DHT22;1666;48.898;9.182;2022-08-01T05:14:29;28.10;1.00
3308;DHT22;1666;48.898;9.182;2022-08-01T05:17:00;28.70;1.00
3308;DHT22;1666;48.898;9.182;2022-08-01T05:19:32;29.20;1.00
3308;DHT22;1666;48.898;9.182;2022-08-01T05:22:07;28.80;1.00
3308;DHT22;1666;48.898;9.182;2022-08-01T05:24:38;28.80;1.00
3308;DHT22;1666;48.898;9.182;2022-08-01T05:27:11;29.00;1.00
3308;DHT22;1666;48.898;9.182;2022-08-01T05:29:42;28.50;1.00
3308;DHT22;1666;48.898;9.182;2022-08-01T05:32:12;27.80;1.00
3308;DHT22;1666;48.898;9.182;2022-08-01T05:34:42;28.20;1.00
3308;DHT22;1666;48.898;9.182;2022-08-01T05:37:14;28.50;1.00
3308;DHT22;1666;48.898;9.182;2022-08-01T05:39:44;29.10;1.00
3308;DHT22;1666;48.898;9.182;2022-08-01T05:42:14;26.40;1.00
3308;DHT22;1666;48.898;9.182;2022-08-01T05:44:44;25.10;1.00
3308;DHT22;1666;48.898;9.182;2022-08-01T05:47:14;26.30;1.00
3308;DHT22;1666;48.898;9.182;2022-08-01T05:49:44;26.30;1.00
3308;DHT22;1666;48.898;9.182;2022-08-01T05:52:16;27.20;1.00
3308;DHT22;1666;48.898;9.182;2022-08-01T05:54:46;25.60;1.00
3308;DHT22;1666;48.898;9.182;2022-08-01T05:57:16;26.00;1.00
3308;DHT22;1666;48.898;9.182;2022-08-01T05:59:46;26.50;1.00
3308;DHT22;1666;48.898;9.182;2022-08-01T06:02:16;25.40;1.00
3308;DHT22;1666;48.898;9.182;2022-08-01T06:04:46;25.00;1.00
3308;DHT22;1666;48.898;9.182;2022-08-01T06:07:18;24.90;1.00
3308;DHT22;1666;48.898;9.182;2022-08-01T06:09:48;25.00;1.00
3308;DHT22;1666;48.898;9.182;2022-08-01T06:12:18;24.60;1.00
3308;DHT22;1666;48.898;9.182;2022-08-01T06:14:49;24.90;1.00
3308;DHT22;1666;48.898;9.182;2022-08-01T06:17:19;24.60;1.00
3308;DHT22;1666;48.898;9.182;2022-08-01T06:19:49;24.10;1.00
3308;DHT22;1666;48.898;9.182;2022-08-01T06:22:21;24.50;1.00
3308;DHT22;1666;48.898;9.182;2022-08-01T06:24:51;24.60;1.00
3308;DHT22;1666;48.898;9.182;2022-08-01T06:27:21;25.00;1.00
3308;DHT22;1666;48.898;9.182;2022-08-01T06:29:51;26.40;1.00
3308;DHT22;1666;48.898;9.182;2022-08-01T06:32:23;26.40;1.00
3308;DHT22;1666;48.898;9.182;2022-08-01T06:34:54;25.90;1.00
3308;DHT22;1666;48.898;9.182;2022-08-01T06:37:28;26.80;1.00
3308;DHT22;1666;48.898;9.182;2022-08-01T06:40:00;26.10;1.00
3308;DHT22;1666;48.898;9.182;2022-08-01T06:42:30;26.50;1.00
3308;DHT22;1666;48.898;9.182;2022-08-01T06:45:02;25.50;1.00
3308;DHT22;1666;48.898;9.182;2022-08-01T06:47:38;25.10;1.00
3308;DHT22;1666;48.898;9.182;2022-08-01T06:50:09;24.50;1.00
3308;DHT22;1666;48.898;9.182;2022-08-01T06:52:43;24.40;1.00
3308;DHT22;1666;48.898;9.182;2022-08-01T06:55:13;24.40;1.00
3308;DHT22;1666;48.898;9.182;2022-08-01T06:57:48;24.50;1.00
3308;DHT22;1666;48.898;9.182;2022-08-01T07:00:21;24.90;1.00
3308;DHT22;1666;48.898;9.182;2022-08-01T07:02:54;24.40;1.00
3308;DHT22;1666;48.898;9.182;2022-08-01T07:05:25;24.80;1.00
3308;DHT22;1666;48.898;9.182;2022-08-01T07:08:00;24.50;1.00
3308;DHT22;1666;48.898;9.182;2022-08-01T07:10:30;24.70;1.00
3308;DHT22;1666;48.898;9.182;2022-08-01T07:13:00;24.70;1.00
3308;DHT22;1666;48.898;9.182;2022-08-01T07:15:30;24.60;1.00
3308;DHT22;1666;48.898;9.182;2022-08-01T07:17:59;25.00;1.00
3308;DHT22;1666;48.898;9.182;2022-08-01T07:20:33;25.10;1.00
3308;DHT22;1666;48.898;9.182;2022-08-01T07:23:21;25.30;1.00
3308;DHT22;1666;48.898;9.182;2022-08-01T07:26:03;24.40;1.00
3308;DHT22;1666;48.898;9.182;2022-08-01T07:28:33;25.10;1.00
3308;DHT22;1666;48.898;9.182;2022-08-01T07:31:09;25.30;1.00
3308;DHT22;1666;48.898;9.182;2022-08-01T07:33:39;24.90;1.00
3308;DHT22;1666;48.898;9.182;2022-08-01T07:36:15;25.50;1.00
3308;DHT22;1666;48.898;9.182;2022-08-01T07:38:48;24.40;1.00
3308;DHT22;1666;48.898;9.182;2022-08-01T07:41:18;25.00;1.00
3308;DHT22;1666;48.898;9.182;2022-08-01T07:44:08;24.40;1.00
3308;DHT22;1666;48.898;9.182;2022-08-01T07:46:38;25.00;1.00
3308;DHT22;1666;48.898;9.182;2022-08-01T07:49:08;24.50;1.00
3308;DHT22;1666;48.898;9.182;2022-08-01T07:51:38;24.90;1.00
3308;DHT22;1666;48.898;9.182;2022-08-01T07:54:10;25.10;1.00
3308;DHT22;1666;48.898;9.182;2022-08-01T07:56:40;25.10;1.00
3308;DHT22;1666;48.898;9.182;2022-08-01T07:59:10;24.40;1.00
3308;DHT22;1666;48.898;9.182;2022-08-01T08:01:50;24.90;1.00
3308;DHT22;1666;48.898;9.182;2022-08-01T08:04:20;24.80;1.00
3308;DHT22;1666;48.898;9.182;2022-08-01T08:06:50;24.90;1.00
3308;DHT22;1666;48.898;9.182;2022-08-01T08:09:23;24.70;1.00
3308;DHT22;1666;48.898;9.182;2022-08-01T08:11:53;24.70;1.00
3308;DHT22;1666;48.898;9.182;2022-08-01T08:14:22;25.00;1.00
3308;DHT22;1666;48.898;9.182;2022-08-01T08:16:58;25.40;1.00
3308;DHT22;1666;48.898;9.182;2022-08-01T08:19:29;25.60;1.00
3308;DHT22;1666;48.898;9.182;2022-08-01T08:22:05;26.30;1.00
3308;DHT22;1666;48.898;9.182;2022-08-01T08:24:38;26.00;1.00
3308;DHT22;1666;48.898;9.182;2022-08-01T08:27:12;25.50;1.00
3308;DHT22;1666;48.898;9.182;2022-08-01T08:29:45;24.90;1.00
3308;DHT22;1666;48.898;9.182;2022-08-01T08:32:14;25.30;1.00
3308;DHT22;1666;48.898;9.182;2022-08-01T08:34:44;25.50;1.00
3308;DHT22;1666;48.898;9.182;2022-08-01T08:37:15;25.20;1.00
3308;DHT22;1666;48.898;9.182;2022-08-01T08:39:49;25.10;1.00
3308;DHT22;1666;48.898;9.182;2022-08-01T08:42:19;25.30;1.00
3308;DHT22;1666;48.898;9.182;2022-08-01T08:44:49;25.70;1.00
3308;DHT22;1666;48.898;9.182;2022-08-01T08:47:22;25.40;1.00
3308;DHT22;1666;48.898;9.182;2022-08-01T08:49:55;26.10;1.00
3308;DHT22;1666;48.898;9.182;2022-08-01T08:52:25;25.90;1.00
3308;DHT22;1666;48.898;9.182;2022-08-01T08:54:58;26.10;1.00
3308;DHT22;1666;48.898;9.182;2022-08-01T08:57:28;26.00;1.00
3308;DHT22;1666;48.898;9.182;2022-08-01T08:59:58;25.30;1.00
3308;DHT22;1666;48.898;9.182;2022-08-01T09:02:28;25.30;1.00
3308;DHT22;1666;48.898;9.182;2022-08-01T09:04:58;25.60;1.00
3308;DHT22;1666;48.898;9.182;2022-08-01T09:07:28;25.30;1.00
3308;DHT22;1666;48.898;9.182;2022-08-01T09:10:01;25.00;1.00
3308;DHT22;1666;48.898;9.182;2022-08-01T09:12:31;25.20;1.00
3308;DHT22;1666;48.898;9.182;2022-08-01T09:15:01;25.70;1.00
3308;DHT22;1666;48.898;9.182;2022-08-01T09:17:39;25.50;1.00
3308;DHT22;1666;48.898;9.182;2022-08-01T09:20:22;25.70;1.00
3308;DHT22;1666;48.898;9.182;2022-08-01T09:22:53;25.40;1.00
3308;DHT22;1666;48.898;9.182;2022-08-01T09:25:26;25.40;1.00
3308;DHT22;1666;48.898;9.182;2022-08-01T09:28:14;25.30;1.00
3308;DHT22;1666;48.898;9.182;2022-08-01T09:30:43;25.80;1.00
3308;DHT22;1666;48.898;9.182;2022-08-01T09:33:13;26.50;1.00
3308;DHT22;1666;48.898;9.182;2022-08-01T09:35:54;25.80;1.00
3308;DHT22;1666;48.898;9.182;2022-08-01T09:38:25;25.80;1.00
3308;DHT22;1666;48.898;9.182;2022-08-01T09:41:00;26.00;1.00
3308;DHT22;1666;48.898;9.182;2022-08-01T09:43:31;27.00;1.00
3308;DHT22;1666;48.898;9.182;2022-08-01T09:46:05;26.00;1.00
3308;DHT22;1666;48.898;9.182;2022-08-01T09:48:39;26.50;1.00
3308;DHT22;1666;48.898;9.182;2022-08-01T09:51:28;26.50;1.00
3308;DHT22;1666;48.898;9.182;2022-08-01T09:54:28;26.40;1.00
3308;DHT22;1666;48.898;9.182;2022-08-01T09:57:12;26.80;1.00
3308;DHT22;1666;48.898;9.182;2022-08-01T09:59:45;26.60;1.00
3308;DHT22;1666;48.898;9.182;2022-08-01T10:02:29;26.90;1.00
3308;DHT22;1666;48.898;9.182;2022-08-01T10:05:01;27.00;1.00
3308;DHT22;1666;48.898;9.182;2022-08-01T10:07:35;26.80;1.00
3308;DHT22;1666;48.898;9.182;2022-08-01T10:10:12;26.80;1.00
3308;DHT22;1666;48.898;9.182;2022-08-01T10:12:45;26.90;1.00
3308;DHT22;1666;48.898;9.182;2022-08-01T10:15:18;26.90;1.00
3308;DHT22;1666;48.898;9.182;2022-08-01T10:18:05;27.00;1.00
3308;DHT22;1666;48.898;9.182;2022-08-01T10:20:52;27.20;1.00
3308;DHT22;1666;48.898;9.182;2022-08-01T10:23:25;27.70;1.00
3308;DHT22;1666;48.898;9.182;2022-08-01T10:26:07;27.70;1.00
3308;DHT22;1666;48.898;9.182;2022-08-01T10:28:41;27.80;1.00
3308;DHT22;1666;48.898;9.182;2022-08-01T10:31:14;27.70;1.00
3308;DHT22;1666;48.898;9.182;2022-08-01T10:33:44;27.50;1.00
3308;DHT22;1666;48.898;9.182;2022-08-01T10:36:19;27.30;1.00
3308;DHT22;1666;48.898;9.182;2022-08-01T10:38:52;27.20;1.00
3308;DHT22;1666;48.898;9.182;2022-08-01T10:41:23;27.30;1.00
3308;DHT22;1666;48.898;9.182;2022-08-01T10:43:57;27.60;1.00
3308;DHT22;1666;48.898;9.182;2022-08-01T10:46:27;28.10;1.00
3308;DHT22;1666;48.898;9.182;2022-08-01T10:49:03;27.90;1.00
3308;DHT22;1666;48.898;9.182;2022-08-01T10:51:35;27.20;1.00
3308;DHT22;1666;48.898;9.182;2022-08-01T10:54:24;27.50;1.00
3308;DHT22;1666;48.898;9.182;2022-08-01T10:56:59;27.90;1.00
3308;DHT22;1666;48.898;9.182;2022-08-01T10:59:36;28.00;1.00
3308;DHT22;1666;48.898;9.182;2022-08-01T11:02:29;28.20;1.00
3308;DHT22;1666;48.898;9.182;2022-08-01T11:05:04;28.60;1.00
3308;DHT22;1666;48.898;9.182;2022-08-01T11:07:42;28.20;1.00
3308;DHT22;1666;48.898;9.182;2022-08-01T11:10:22;28.10;1.00
3308;DHT22;1666;48.898;9.182;2022-08-01T11:12:54;28.10;1.00
3308;DHT22;1666;48.898;9.182;2022-08-01T11:15:26;27.40;1.00
3308;DHT22;1666;48.898;9.182;2022-08-01T11:17:59;27.70;1.00
3308;DHT22;1666;48.898;9.182;2022-08-01T11:20:32;27.60;1.00
3308;DHT22;1666;48.898;9.182;2022-08-01T11:23:18;27.80;1.00
3308;DHT22;1666;48.898;9.182;2022-08-01T11:26:11;27.90;1.00
3308;DHT22;1666;48.898;9.182;2022-08-01T11:28:45;27.60;1.00
3308;DHT22;1666;48.898;9.182;2022-08-01T11:31:38;28.20;1.00
3308;DHT22;1666;48.898;9.182;2022-08-01T11:34:08;28.20;1.00
3308;DHT22;1666;48.898;9.182;2022-08-01T11:36:37;28.40;1.00
3308;DHT22;1666;48.898;9.182;2022-08-01T11:39:25;27.80;1.00
3308;DHT22;1666;48.898;9.182;2022-08-01T11:42:18;27.70;1.00
3308;DHT22;1666;48.898;9.182;2022-08-01T11:44:53;28.20;1.00
3308;DHT22;1666;48.898;9.182;2022-08-01T11:47:48;28.30;1.00
3308;DHT22;1666;48.898;9.182;2022-08-01T11:50:34;28.40;1.00
3308;DHT22;1666;48.898;9.182;2022-08-01T11:53:07;28.20;1.00
3308;DHT22;1666;48.898;9.182;2022-08-01T11:55:45;29.10;1.00
3308;DHT22;1666;48.898;9.182;2022-08-01T11:58:22;29.20;1.00
3308;DHT22;1666;48.898;9.182;2022-08-01T12:00:58;28.40;1.00
3308;DHT22;1666;48.898;9.182;2022-08-01T12:03:32;28.40;1.00
3308;DHT22;1666;48.898;9.182;2022-08-01T12:06:02;28.40;1.00
3308;DHT22;1666;48.898;9.182;2022-08-01T12:08:33;28.20;1.00
3308;DHT22;1666;48.898;9.182;2022-08-01T12:11:04;27.90;1.00
3308;DHT22;1666;48.898;9.182;2022-08-01T12:13:41;28.20;1.00
3308;DHT22;1666;48.898;9.182;2022-08-01T12:16:11;28.40;1.00
3308;DHT22;1666;48.898;9.182;2022-08-01T12:18:44;29.20;1.00
3308;DHT22;1666;48.898;9.182;2022-08-01T12:21:14;29.00;1.00
3308;DHT22;1666;48.898;9.182;2022-08-01T12:23:46;28.30;1.00
3308;DHT22;1666;48.898;9.182;2022-08-01T12:26:39;28.40;1.00
3308;DHT22;1666;48.898;9.182;2022-08-01T12:29:31;28.70;1.00
3308;DHT22;1666;48.898;9.182;2022-08-01T12:32:00;28.60;1.00
3308;DHT22;1666;48.898;9.182;2022-08-01T12:34:33;28.40;1.00
3308;DHT22;1666;48.898;9.182;2022-08-01T12:37:05;28.00;1.00
3308;DHT22;1666;48.898;9.182;2022-08-01T12:39:35;28.60;1.00
3308;DHT22;1666;48.898;9.182;2022-08-01T12:42:07;28.60;1.00
3308;DHT22;1666;48.898;9.182;2022-08-01T12:44:38;28.00;1.00
3308;DHT22;1666;48.898;9.182;2022-08-01T12:47:09;28.40;1.00
3308;DHT22;1666;48.898;9.182;2022-08-01T12:49:43;28.80;1.00
3308;DHT22;1666;48.898;9.182;2022-08-01T12:52:13;28.50;1.00
3308;DHT22;1666;48.898;9.182;2022-08-01T12:54:59;28.60;1.00
3308;DHT22;1666;48.898;9.182;2022-08-01T12:57:33;29.10;1.00
3308;DHT22;1666;48.898;9.182;2022-08-01T13:00:15;28.70;1.00
3308;DHT22;1666;48.898;9.182;2022-08-01T13:02:47;29.30;1.00
3308;DHT22;1666;48.898;9.182;2022-08-01T13:05:24;29.00;1.00
3308;DHT22;1666;48.898;9.182;2022-08-01T13:07:54;29.10;1.00
3308;DHT22;1666;48.898;9.182;2022-08-01T13:10:27;28.80;1.00
3308;DHT22;1666;48.898;9.182;2022-08-01T13:12:57;28.80;1.00
3308;DHT22;1666;48.898;9.182;2022-08-01T13:15:29;28.80;1.00
3308;DHT22;1666;48.898;9.182;2022-08-01T13:18:23;28.70;1.00
3308;DHT22;1666;48.898;9.182;2022-08-01T13:21:10;29.00;1.00
3308;DHT22;1666;48.898;9.182;2022-08-01T13:23:42;29.00;1.00
3308;DHT22;1666;48.898;9.182;2022-08-01T13:26:40;29.10;1.00
3308;DHT22;1666;48.898;9.182;2022-08-01T13:29:12;28.70;1.00
3308;DHT22;1666;48.898;9.182;2022-08-01T13:31:43;28.90;1.00
3308;DHT22;1666;48.898;9.182;2022-08-01T13:34:15;28.90;1.00
3308;DHT22;1666;48.898;9.182;2022-08-01T13:36:47;28.70;1.00
3308;DHT22;1666;48.898;9.182;2022-08-01T13:39:17;28.40;1.00
3308;DHT22;1666;48.898;9.182;2022-08-01T13:42:00;28.70;1.00
3308;DHT22;1666;48.898;9.182;2022-08-01T13:44:30;28.20;1.00
3308;DHT22;1666;48.898;9.182;2022-08-01T13:47:01;28.80;1.00
3308;DHT22;1666;48.898;9.182;2022-08-01T13:49:41;28.90;1.00
3308;DHT22;1666;48.898;9.182;2022-08-01T13:52:14;29.40;1.00
3308;DHT22;1666;48.898;9.182;2022-08-01T13:54:44;29.30;1.00
3308;DHT22;1666;48.898;9.182;2022-08-01T13:57:14;29.10;1.00
3308;DHT22;1666;48.898;9.182;2022-08-01T13:59:44;29.10;1.00
3308;DHT22;1666;48.898;9.182;2022-08-01T14:02:16;29.10;1.00
3308;DHT22;1666;48.898;9.182;2022-08-01T14:04:46;29.50;1.00
3308;DHT22;1666;48.898;9.182;2022-08-01T14:07:19;29.60;1.00
3308;DHT22;1666;48.898;9.182;2022-08-01T14:09:49;29.00;1.00
3308;DHT22;1666;48.898;9.182;2022-08-01T14:12:39;29.10;1.00
3308;DHT22;1666;48.898;9.182;2022-08-01T14:15:11;29.30;1.00
3308;DHT22;1666;48.898;9.182;2022-08-01T14:18:01;29.60;1.00
3308;DHT22;1666;48.898;9.182;2022-08-01T14:20:32;29.10;1.00
3308;DHT22;1666;48.898;9.182;2022-08-01T14:23:05;29.80;1.00
3308;DHT22;1666;48.898;9.182;2022-08-01T14:25:35;29.40;1.00
3308;DHT22;1666;48.898;9.182;2022-08-01T14:28:26;29.30;1.00
3308;DHT22;1666;48.898;9.182;2022-08-01T14:30:57;29.60;1.00
3308;DHT22;1666;48.898;9.182;2022-08-01T14:33:27;29.40;1.00
3308;DHT22;1666;48.898;9.182;2022-08-01T14:36:03;28.70;1.00
3308;DHT22;1666;48.898;9.182;2022-08-01T14:38:55;28.80;1.00
3308;DHT22;1666;48.898;9.182;2022-08-01T14:41:26;29.00;1.00
3308;DHT22;1666;48.898;9.182;2022-08-01T14:43:57;29.20;1.00
3308;DHT22;1666;48.898;9.182;2022-08-01T14:46:26;29.10;1.00
3308;DHT22;1666;48.898;9.182;2022-08-01T14:48:59;29.60;1.00
3308;DHT22;1666;48.898;9.182;2022-08-01T14:51:29;29.30;1.00
3308;DHT22;1666;48.898;9.182;2022-08-01T14:54:04;29.10;1.00
3308;DHT22;1666;48.898;9.182;2022-08-01T14:56:35;29.10;1.00
3308;DHT22;1666;48.898;9.182;2022-08-01T14:59:05;29.40;1.00
3308;DHT22;1666;48.898;9.182;2022-08-01T15:01:47;29.60;1.00
3308;DHT22;1666;48.898;9.182;2022-08-01T15:04:17;30.00;1.00
3308;DHT22;1666;48.898;9.182;2022-08-01T15:06:47;29.70;1.00
3308;DHT22;1666;48.898;9.182;2022-08-01T15:09:20;29.20;1.00
3308;DHT22;1666;48.898;9.182;2022-08-01T15:11:50;29.20;1.00
3308;DHT22;1666;48.898;9.182;2022-08-01T15:14:20;28.70;1.00
3308;DHT22;1666;48.898;9.182;2022-08-01T15:17:02;28.70;1.00
3308;DHT22;1666;48.898;9.182;2022-08-01T15:19:34;29.10;1.00
3308;DHT22;1666;48.898;9.182;2022-08-01T15:22:08;29.00;1.00
3308;DHT22;1666;48.898;9.182;2022-08-01T15:24:41;28.70;1.00
3308;DHT22;1666;48.898;9.182;2022-08-01T15:27:11;28.60;1.00
3308;DHT22;1666;48.898;9.182;2022-08-01T15:29:41;28.60;1.00
3308;DHT22;1666;48.898;9.182;2022-08-01T15:32:12;28.80;1.00
3308;DHT22;1666;48.898;9.182;2022-08-01T15:34:42;28.80;1.00
3308;DHT22;1666;48.898;9.182;2022-08-01T15:37:12;28.70;1.00
3308;DHT22;1666;48.898;9.182;2022-08-01T15:39:45;28.50;1.00
3308;DHT22;1666;48.898;9.182;2022-08-01T15:42:17;28.50;1.00
3308;DHT22;1666;48.898;9.182;2022-08-01T15:44:53;28.70;1.00
3308;DHT22;1666;48.898;9.182;2022-08-01T15:47:22;28.60;1.00
3308;DHT22;1666;48.898;9.182;2022-08-01T15:49:52;28.30;1.00
3308;DHT22;1666;48.898;9.182;2022-08-01T15:52:26;28.50;1.00
3308;DHT22;1666;48.898;9.182;2022-08-01T15:55:00;28.60;1.00
3308;DHT22;1666;48.898;9.182;2022-08-01T15:57:30;28.50;1.00
3308;DHT22;1666;48.898;9.182;2022-08-01T16:00:00;28.80;1.00
3308;DHT22;1666;48.898;9.182;2022-08-01T16:02:30;28.60;1.00
3308;DHT22;1666;48.898;9.182;2022-08-01T16:05:01;28.40;1.00
3308;DHT22;1666;48.898;9.182;2022-08-01T16:07:31;28.50;1.00
3308;DHT22;1666;48.898;9.182;2022-08-01T16:10:24;28.30;1.00
3308;DHT22;1666;48.898;9.182;2022-08-01T16:12:54;28.10;1.00
3308;DHT22;1666;48.898;9.182;2022-08-01T16:15:31;28.30;1.00
3308;DHT22;1666;48.898;9.182;2022-08-01T16:18:04;28.40;1.00
3308;DHT22;1666;48.898;9.182;2022-08-01T16:20:34;28.20;1.00
3308;DHT22;1666;48.898;9.182;2022-08-01T16:23:11;28.40;1.00
3308;DHT22;1666;48.898;9.182;2022-08-01T16:25:44;28.20;1.00
3308;DHT22;1666;48.898;9.182;2022-08-01T16:28:14;28.00;1.00
3308;DHT22;1666;48.898;9.182;2022-08-01T16:30:44;27.90;1.00
3308;DHT22;1666;48.898;9.182;2022-08-01T16:33:34;27.90;1.00
3308;DHT22;1666;48.898;9.182;2022-08-01T16:36:20;27.90;1.00
3308;DHT22;1666;48.898;9.182;2022-08-01T16:38:51;28.00;1.00
3308;DHT22;1666;48.898;9.182;2022-08-01T16:41:23;27.80;1.00
3308;DHT22;1666;48.898;9.182;2022-08-01T16:43:53;27.70;1.00
3308;DHT22;1666;48.898;9.182;2022-08-01T16:46:24;27.70;1.00
3308;DHT22;1666;48.898;9.182;2022-08-01T16:48:54;27.50;1.00
3308;DHT22;1666;48.898;9.182;2022-08-01T16:51:24;27.60;1.00
3308;DHT22;1666;48.898;9.182;2022-08-01T16:53:58;27.50;1.00
3308;DHT22;1666;48.898;9.182;2022-08-01T16:56:31;27.40;1.00
3308;DHT22;1666;48.898;9.182;2022-08-01T16:59:01;27.40;1.00
3308;DHT22;1666;48.898;9.182;2022-08-01T17:01:34;27.20;1.00
3308;DHT22;1666;48.898;9.182;2022-08-01T17:04:24;27.30;1.00